sensor_id;sensor_type;location;lat;lon;timestamp;P1;durP1;ratioP1;P2;durP2;ratioP2
78205;SDS011;67480;48.920;12.880;2024-03-06T00:02:04;15.27;;;8.40;;
78205;SDS011;67480;48.920;12.880;2024-03-06T00:04:29;14.00;;;9.50;;
78205;SDS011;67480;48.920;12.880;2024-03-06T00:06:55;13.55;;;8.00;;
78205;SDS011;67480;48.920;12.880;2024-03-06T00:09:21;13.35;;;8.48;;
78205;SDS011;67480;48.920;12.880;2024-03-06T00:11:46;13.38;;;8.55;;
78205;SDS011;67480;48.920;12.880;2024-03-06T00:14:12;12.88;;;7.60;;
78205;SDS011;67480;48.920;12.880;2024-03-06T00:16:37;13.45;;;8.50;;
78205;SDS011;67480;48.920;12.880;2024-03-06T00:19:03;12.13;;;8.93;;
78205;SDS011;67480;48.920;12.880;2024-03-06T00:21:29;14.80;;;9.18;;
78205;SDS011;67480;48.920;12.880;2024-03-06T00:23:54;13.23;;;8.32;;
78205;SDS011;67480;48.920;12.880;2024-03-06T00:26:20;10.02;;;7.60;;
78205;SDS011;67480;48.920;12.880;2024-03-06T00:28:46;13.13;;;7.82;;
78205;SDS011;67480;48.920;12.880;2024-03-06T00:31:12;12.50;;;8.35;;
78205;SDS011;67480;48.920;12.880;2024-03-06T00:33:37;13.38;;;8.65;;
78205;SDS011;67480;48.920;12.880;2024-03-06T00:36:03;15.35;;;9.15;;
78205;SDS011;67480;48.920;12.880;2024-03-06T00:38:29;14.38;;;9.20;;
78205;SDS011;67480;48.920;12.880;2024-03-06T00:40:54;14.82;;;9.32;;
78205;SDS011;67480;48.920;12.880;2024-03-06T00:43:22;15.00;;;8.57;;
78205;SDS011;67480;48.920;12.880;2024-03-06T00:45:47;13.93;;;8.50;;
78205;SDS011;67480;48.920;12.880;2024-03-06T00:48:13;15.50;;;9.00;;
78205;SDS011;67480;48.920;12.880;2024-03-06T00:50:38;13.90;;;8.57;;
78205;SDS011;67480;48.920;12.880;2024-03-06T00:53:03;13.98;;;8.95;;
78205;SDS011;67480;48.920;12.880;2024-03-06T00:55:29;15.52;;;8.07;;
78205;SDS011;67480;48.920;12.880;2024-03-06T00:57:55;15.63;;;9.07;;
78205;SDS011;67480;48.920;12.880;2024-03-06T01:00:20;12.27;;;7.80;;
78205;SDS011;67480;48.920;12.880;2024-03-06T01:02:47;12.45;;;8.20;;
78205;SDS011;67480;48.920;12.880;2024-03-06T01:05:13;13.15;;;8.43;;
78205;SDS011;67480;48.920;12.880;2024-03-06T01:07:38;11.90;;;7.75;;
78205;SDS011;67480;48.920;12.880;2024-03-06T01:10:08;12.38;;;7.93;;
78205;SDS011;67480;48.920;12.880;2024-03-06T01:12:33;14.88;;;9.05;;
78205;SDS011;67480;48.920;12.880;2024-03-06T01:14:59;14.05;;;8.90;;
78205;SDS011;67480;48.920;12.880;2024-03-06T01:17:25;14.85;;;8.43;;
78205;SDS011;67480;48.920;12.880;2024-03-06T01:19:51;12.05;;;8.55;;
78205;SDS011;67480;48.920;12.880;2024-03-06T01:22:16;13.15;;;8.25;;
78205;SDS011;67480;48.920;12.880;2024-03-06T01:24:42;14.55;;;8.57;;
78205;SDS011;67480;48.920;12.880;2024-03-06T01:27:07;13.35;;;8.32;;
78205;SDS011;67480;48.920;12.880;2024-03-06T01:29:33;12.23;;;7.30;;
78205;SDS011;67480;48.920;12.880;2024-03-06T01:31:58;12.25;;;7.22;;
78205;SDS011;67480;48.920;12.880;2024-03-06T01:34:24;14.68;;;8.30;;
78205;SDS011;67480;48.920;12.880;2024-03-06T01:36:51;12.82;;;8.15;;
78205;SDS011;67480;48.920;12.880;2024-03-06T01:39:20;15.63;;;9.18;;
78205;SDS011;67480;48.920;12.880;2024-03-06T01:41:46;16.30;;;9.07;;
78205;SDS011;67480;48.920;12.880;2024-03-06T01:44:16;16.13;;;9.77;;
78205;SDS011;67480;48.920;12.880;2024-03-06T01:46:46;13.88;;;8.77;;
78205;SDS011;67480;48.920;12.880;2024-03-06T01:49:15;13.60;;;9.32;;
78205;SDS011;67480;48.920;12.880;2024-03-06T01:51:42;16.38;;;8.75;;
78205;SDS011;67480;48.920;12.880;2024-03-06T01:54:10;13.93;;;8.38;;
78205;SDS011;67480;48.920;12.880;2024-03-06T01:56:36;13.10;;;8.90;;
78205;SDS011;67480;48.920;12.880;2024-03-06T01:59:06;11.85;;;8.38;;
78205;SDS011;67480;48.920;12.880;2024-03-06T02:01:32;12.93;;;8.75;;
78205;SDS011;67480;48.920;12.880;2024-03-06T02:03:58;12.52;;;8.40;;
78205;SDS011;67480;48.920;12.880;2024-03-06T02:06:24;13.77;;;8.50;;
78205;SDS011;67480;48.920;12.880;2024-03-06T02:08:50;13.82;;;9.05;;
78205;SDS011;67480;48.920;12.880;2024-03-06T02:11:16;14.85;;;9.07;;
78205;SDS011;67480;48.920;12.880;2024-03-06T02:13:42;12.75;;;8.27;;
78205;SDS011;67480;48.920;12.880;2024-03-06T02:16:09;14.00;;;8.57;;
78205;SDS011;67480;48.920;12.880;2024-03-06T02:18:35;15.02;;;8.80;;
78205;SDS011;67480;48.920;12.880;2024-03-06T02:21:01;14.82;;;8.07;;
78205;SDS011;67480;48.920;12.880;2024-03-06T02:23:27;16.00;;;9.80;;
78205;SDS011;67480;48.920;12.880;2024-03-06T02:25:52;13.98;;;8.75;;
78205;SDS011;67480;48.920;12.880;2024-03-06T02:28:18;13.00;;;7.63;;
78205;SDS011;67480;48.920;12.880;2024-03-06T02:30:43;12.90;;;7.47;;
78205;SDS011;67480;48.920;12.880;2024-03-06T02:33:09;13.38;;;8.35;;
78205;SDS011;67480;48.920;12.880;2024-03-06T02:35:35;11.40;;;7.25;;
78205;SDS011;67480;48.920;12.880;2024-03-06T02:38:01;15.52;;;9.23;;
78205;SDS011;67480;48.920;12.880;2024-03-06T02:40:29;12.02;;;7.80;;
78205;SDS011;67480;48.920;12.880;2024-03-06T02:42:58;13.15;;;7.75;;
78205;SDS011;67480;48.920;12.880;2024-03-06T02:45:23;11.90;;;7.53;;
78205;SDS011;67480;48.920;12.880;2024-03-06T02:47:51;15.02;;;9.35;;
78205;SDS011;67480;48.920;12.880;2024-03-06T02:50:17;17.85;;;8.07;;
78205;SDS011;67480;48.920;12.880;2024-03-06T02:52:42;13.55;;;8.57;;
78205;SDS011;67480;48.920;12.880;2024-03-06T02:55:07;12.43;;;7.78;;
78205;SDS011;67480;48.920;12.880;2024-03-06T02:57:33;11.85;;;7.57;;
78205;SDS011;67480;48.920;12.880;2024-03-06T02:59:58;11.95;;;7.95;;
78205;SDS011;67480;48.920;12.880;2024-03-06T03:02:24;12.88;;;7.93;;
78205;SDS011;67480;48.920;12.880;2024-03-06T03:04:53;11.02;;;7.30;;
78205;SDS011;67480;48.920;12.880;2024-03-06T03:07:18;13.32;;;7.68;;
78205;SDS011;67480;48.920;12.880;2024-03-06T03:09:46;13.80;;;7.93;;
78205;SDS011;67480;48.920;12.880;2024-03-06T03:12:15;12.45;;;7.78;;
78205;SDS011;67480;48.920;12.880;2024-03-06T03:14:40;14.45;;;7.20;;
78205;SDS011;67480;48.920;12.880;2024-03-06T03:17:06;13.80;;;8.10;;
78205;SDS011;67480;48.920;12.880;2024-03-06T03:19:32;13.80;;;7.97;;
78205;SDS011;67480;48.920;12.880;2024-03-06T03:21:57;12.90;;;7.90;;
78205;SDS011;67480;48.920;12.880;2024-03-06T03:24:23;12.93;;;8.02;;
78205;SDS011;67480;48.920;12.880;2024-03-06T03:26:50;13.30;;;7.95;;
78205;SDS011;67480;48.920;12.880;2024-03-06T03:29:16;13.50;;;7.38;;
78205;SDS011;67480;48.920;12.880;2024-03-06T03:31:42;17.40;;;9.52;;
78205;SDS011;67480;48.920;12.880;2024-03-06T03:34:07;14.93;;;8.60;;
78205;SDS011;67480;48.920;12.880;2024-03-06T03:36:33;16.30;;;9.10;;
78205;SDS011;67480;48.920;12.880;2024-03-06T03:38:59;14.68;;;8.90;;
78205;SDS011;67480;48.920;12.880;2024-03-06T03:41:25;13.32;;;8.32;;
78205;SDS011;67480;48.920;12.880;2024-03-06T03:43:50;14.05;;;8.45;;
78205;SDS011;67480;48.920;12.880;2024-03-06T03:46:16;12.55;;;8.55;;
78205;SDS011;67480;48.920;12.880;2024-03-06T03:48:41;14.02;;;8.98;;
78205;SDS011;67480;48.920;12.880;2024-03-06T03:51:06;16.00;;;10.07;;
78205;SDS011;67480;48.920;12.880;2024-03-06T03:53:32;17.63;;;10.27;;
78205;SDS011;67480;48.920;12.880;2024-03-06T03:55:58;19.33;;;9.65;;
78205;SDS011;67480;48.920;12.880;2024-03-06T03:58:24;19.13;;;10.82;;
78205;SDS011;67480;48.920;12.880;2024-03-06T04:00:49;16.83;;;10.05;;
78205;SDS011;67480;48.920;12.880;2024-03-06T04:03:18;17.48;;;10.20;;
78205;SDS011;67480;48.920;12.880;2024-03-06T04:05:44;18.30;;;11.30;;
78205;SDS011;67480;48.920;12.880;2024-03-06T04:08:10;15.85;;;9.85;;
78205;SDS011;67480;48.920;12.880;2024-03-06T04:10:35;17.13;;;11.45;;
78205;SDS011;67480;48.920;12.880;2024-03-06T04:13:00;18.00;;;11.13;;
78205;SDS011;67480;48.920;12.880;2024-03-06T04:15:26;16.42;;;11.13;;
78205;SDS011;67480;48.920;12.880;2024-03-06T04:17:51;17.23;;;10.77;;
78205;SDS011;67480;48.920;12.880;2024-03-06T04:20:17;18.02;;;11.00;;
78205;SDS011;67480;48.920;12.880;2024-03-06T04:22:43;17.45;;;10.80;;
78205;SDS011;67480;48.920;12.880;2024-03-06T04:25:08;17.00;;;10.32;;
78205;SDS011;67480;48.920;12.880;2024-03-06T04:27:34;16.70;;;10.65;;
78205;SDS011;67480;48.920;12.880;2024-03-06T04:30:00;16.80;;;10.27;;
78205;SDS011;67480;48.920;12.880;2024-03-06T04:32:25;20.15;;;11.75;;
78205;SDS011;67480;48.920;12.880;2024-03-06T04:34:51;14.93;;;10.02;;
78205;SDS011;67480;48.920;12.880;2024-03-06T04:37:16;18.77;;;11.25;;
78205;SDS011;67480;48.920;12.880;2024-03-06T04:39:42;16.95;;;10.90;;
78205;SDS011;67480;48.920;12.880;2024-03-06T04:42:07;16.60;;;10.23;;
78205;SDS011;67480;48.920;12.880;2024-03-06T04:44:33;17.63;;;10.35;;
78205;SDS011;67480;48.920;12.880;2024-03-06T04:46:59;17.75;;;10.35;;
78205;SDS011;67480;48.920;12.880;2024-03-06T04:49:25;18.60;;;11.30;;
78205;SDS011;67480;48.920;12.880;2024-03-06T04:51:53;19.65;;;10.63;;
78205;SDS011;67480;48.920;12.880;2024-03-06T04:54:18;18.10;;;10.77;;
78205;SDS011;67480;48.920;12.880;2024-03-06T04:56:44;15.30;;;10.63;;
78205;SDS011;67480;48.920;12.880;2024-03-06T04:59:09;19.13;;;10.75;;
78205;SDS011;67480;48.920;12.880;2024-03-06T05:01:34;18.80;;;10.50;;
78205;SDS011;67480;48.920;12.880;2024-03-06T05:04:00;17.17;;;10.13;;
78205;SDS011;67480;48.920;12.880;2024-03-06T05:06:25;18.08;;;10.55;;
78205;SDS011;67480;48.920;12.880;2024-03-06T05:08:51;17.33;;;10.50;;
78205;SDS011;67480;48.920;12.880;2024-03-06T05:11:16;18.52;;;10.60;;
78205;SDS011;67480;48.920;12.880;2024-03-06T05:13:41;16.67;;;11.05;;
78205;SDS011;67480;48.920;12.880;2024-03-06T05:16:06;19.30;;;10.93;;
78205;SDS011;67480;48.920;12.880;2024-03-06T05:18:34;18.30;;;10.93;;
78205;SDS011;67480;48.920;12.880;2024-03-06T05:21:00;18.27;;;10.60;;
78205;SDS011;67480;48.920;12.880;2024-03-06T05:23:25;15.43;;;10.43;;
78205;SDS011;67480;48.920;12.880;2024-03-06T05:25:50;16.85;;;10.50;;
78205;SDS011;67480;48.920;12.880;2024-03-06T05:28:16;19.65;;;10.65;;
78205;SDS011;67480;48.920;12.880;2024-03-06T05:30:41;17.10;;;10.20;;
78205;SDS011;67480;48.920;12.880;2024-03-06T05:33:06;18.08;;;10.95;;
78205;SDS011;67480;48.920;12.880;2024-03-06T05:35:32;15.57;;;9.48;;
78205;SDS011;67480;48.920;12.880;2024-03-06T05:37:57;16.42;;;9.85;;
78205;SDS011;67480;48.920;12.880;2024-03-06T05:40:22;15.90;;;10.18;;
78205;SDS011;67480;48.920;12.880;2024-03-06T05:42:48;14.88;;;10.20;;
78205;SDS011;67480;48.920;12.880;2024-03-06T05:45:14;16.42;;;9.23;;
78205;SDS011;67480;48.920;12.880;2024-03-06T05:47:39;17.45;;;10.30;;
78205;SDS011;67480;48.920;12.880;2024-03-06T05:50:05;15.80;;;10.88;;
78205;SDS011;67480;48.920;12.880;2024-03-06T05:52:31;26.48;;;11.10;;
78205;SDS011;67480;48.920;12.880;2024-03-06T05:54:57;15.48;;;9.63;;
78205;SDS011;67480;48.920;12.880;2024-03-06T05:57:22;16.13;;;10.18;;
78205;SDS011;67480;48.920;12.880;2024-03-06T05:59:48;16.08;;;10.18;;
78205;SDS011;67480;48.920;12.880;2024-03-06T06:02:13;20.40;;;10.50;;
78205;SDS011;67480;48.920;12.880;2024-03-06T06:04:41;15.48;;;9.52;;
78205;SDS011;67480;48.920;12.880;2024-03-06T06:07:06;15.68;;;9.82;;
78205;SDS011;67480;48.920;12.880;2024-03-06T06:09:35;15.98;;;9.88;;
78205;SDS011;67480;48.920;12.880;2024-03-06T06:12:00;15.15;;;9.27;;
78205;SDS011;67480;48.920;12.880;2024-03-06T06:14:26;14.55;;;9.60;;
78205;SDS011;67480;48.920;12.880;2024-03-06T06:16:54;15.90;;;9.98;;
78205;SDS011;67480;48.920;12.880;2024-03-06T06:19:21;15.55;;;10.00;;
78205;SDS011;67480;48.920;12.880;2024-03-06T06:21:46;14.57;;;9.35;;
78205;SDS011;67480;48.920;12.880;2024-03-06T06:24:13;15.35;;;8.88;;
78205;SDS011;67480;48.920;12.880;2024-03-06T06:26:39;16.00;;;10.15;;
78205;SDS011;67480;48.920;12.880;2024-03-06T06:29:04;17.35;;;9.32;;
78205;SDS011;67480;48.920;12.880;2024-03-06T06:31:30;13.50;;;9.50;;
78205;SDS011;67480;48.920;12.880;2024-03-06T06:33:55;14.27;;;9.23;;
78205;SDS011;67480;48.920;12.880;2024-03-06T06:36:21;14.93;;;9.60;;
78205;SDS011;67480;48.920;12.880;2024-03-06T06:38:47;13.82;;;8.65;;
78205;SDS011;67480;48.920;12.880;2024-03-06T06:41:13;13.98;;;8.70;;
78205;SDS011;67480;48.920;12.880;2024-03-06T06:43:39;14.88;;;9.48;;
78205;SDS011;67480;48.920;12.880;2024-03-06T06:46:06;14.80;;;8.88;;
78205;SDS011;67480;48.920;12.880;2024-03-06T06:48:32;17.08;;;8.73;;
78205;SDS011;67480;48.920;12.880;2024-03-06T06:50:58;14.40;;;9.27;;
78205;SDS011;67480;48.920;12.880;2024-03-06T06:53:25;13.70;;;9.20;;
78205;SDS011;67480;48.920;12.880;2024-03-06T06:55:50;15.05;;;8.82;;
78205;SDS011;67480;48.920;12.880;2024-03-06T06:58:16;12.23;;;8.43;;
78205;SDS011;67480;48.920;12.880;2024-03-06T07:00:41;13.85;;;8.57;;
78205;SDS011;67480;48.920;12.880;2024-03-06T07:03:07;13.52;;;8.48;;
78205;SDS011;67480;48.920;12.880;2024-03-06T07:05:35;14.05;;;8.75;;
78205;SDS011;67480;48.920;12.880;2024-03-06T07:08:01;12.93;;;8.30;;
78205;SDS011;67480;48.920;12.880;2024-03-06T07:10:26;12.93;;;8.65;;
78205;SDS011;67480;48.920;12.880;2024-03-06T07:12:52;13.40;;;8.73;;
78205;SDS011;67480;48.920;12.880;2024-03-06T07:15:18;14.65;;;8.45;;
78205;SDS011;67480;48.920;12.880;2024-03-06T07:17:47;13.93;;;9.02;;
78205;SDS011;67480;48.920;12.880;2024-03-06T07:20:12;13.43;;;8.95;;
78205;SDS011;67480;48.920;12.880;2024-03-06T07:22:39;13.15;;;8.73;;
78205;SDS011;67480;48.920;12.880;2024-03-06T07:25:05;14.27;;;8.60;;
78205;SDS011;67480;48.920;12.880;2024-03-06T07:27:30;15.10;;;9.85;;
78205;SDS011;67480;48.920;12.880;2024-03-06T07:29:56;14.27;;;9.65;;
78205;SDS011;67480;48.920;12.880;2024-03-06T07:32:22;13.82;;;9.68;;
78205;SDS011;67480;48.920;12.880;2024-03-06T07:34:47;14.05;;;10.35;;
78205;SDS011;67480;48.920;12.880;2024-03-06T07:37:13;15.73;;;9.63;;
78205;SDS011;67480;48.920;12.880;2024-03-06T07:39:40;13.52;;;10.00;;
78205;SDS011;67480;48.920;12.880;2024-03-06T07:42:05;16.83;;;9.55;;
78205;SDS011;67480;48.920;12.880;2024-03-06T07:44:31;15.45;;;10.02;;
78205;SDS011;67480;48.920;12.880;2024-03-06T07:46:56;14.88;;;9.25;;
78205;SDS011;67480;48.920;12.880;2024-03-06T07:49:22;16.13;;;10.40;;
78205;SDS011;67480;48.920;12.880;2024-03-06T07:51:47;14.65;;;10.07;;
78205;SDS011;67480;48.920;12.880;2024-03-06T07:54:13;16.25;;;10.15;;
78205;SDS011;67480;48.920;12.880;2024-03-06T07:56:38;15.50;;;10.15;;
78205;SDS011;67480;48.920;12.880;2024-03-06T07:59:04;16.08;;;11.30;;
78205;SDS011;67480;48.920;12.880;2024-03-06T08:01:30;15.25;;;10.40;;
78205;SDS011;67480;48.920;12.880;2024-03-06T08:03:56;15.05;;;9.73;;
78205;SDS011;67480;48.920;12.880;2024-03-06T08:06:22;17.67;;;10.38;;
78205;SDS011;67480;48.920;12.880;2024-03-06T08:08:48;15.77;;;10.25;;
78205;SDS011;67480;48.920;12.880;2024-03-06T08:11:13;14.65;;;10.40;;
78205;SDS011;67480;48.920;12.880;2024-03-06T08:13:39;15.70;;;10.10;;
78205;SDS011;67480;48.920;12.880;2024-03-06T08:16:07;17.08;;;10.48;;
78205;SDS011;67480;48.920;12.880;2024-03-06T08:18:33;15.55;;;10.18;;
78205;SDS011;67480;48.920;12.880;2024-03-06T08:21:00;15.75;;;10.13;;
78205;SDS011;67480;48.920;12.880;2024-03-06T08:23:31;17.20;;;11.30;;
78205;SDS011;67480;48.920;12.880;2024-03-06T08:25:58;15.45;;;10.63;;
78205;SDS011;67480;48.920;12.880;2024-03-06T08:28:24;15.48;;;10.73;;
78205;SDS011;67480;48.920;12.880;2024-03-06T08:30:50;15.15;;;10.45;;
78205;SDS011;67480;48.920;12.880;2024-03-06T08:33:20;21.80;;;11.88;;
78205;SDS011;67480;48.920;12.880;2024-03-06T08:35:47;16.17;;;11.30;;
78205;SDS011;67480;48.920;12.880;2024-03-06T08:38:12;18.80;;;11.05;;
78205;SDS011;67480;48.920;12.880;2024-03-06T08:40:38;18.90;;;11.50;;
78205;SDS011;67480;48.920;12.880;2024-03-06T08:43:03;18.15;;;11.93;;
78205;SDS011;67480;48.920;12.880;2024-03-06T08:45:29;14.68;;;10.25;;
78205;SDS011;67480;48.920;12.880;2024-03-06T08:47:54;15.00;;;10.23;;
78205;SDS011;67480;48.920;12.880;2024-03-06T08:50:20;13.98;;;10.35;;
78205;SDS011;67480;48.920;12.880;2024-03-06T08:52:46;16.63;;;10.70;;
78205;SDS011;67480;48.920;12.880;2024-03-06T08:55:11;17.95;;;11.23;;
78205;SDS011;67480;48.920;12.880;2024-03-06T08:57:38;17.83;;;11.32;;
78205;SDS011;67480;48.920;12.880;2024-03-06T09:00:03;16.25;;;11.55;;
78205;SDS011;67480;48.920;12.880;2024-03-06T09:02:35;18.35;;;11.43;;
78205;SDS011;67480;48.920;12.880;2024-03-06T09:05:01;18.33;;;11.35;;
78205;SDS011;67480;48.920;12.880;2024-03-06T09:07:29;16.20;;;11.70;;
78205;SDS011;67480;48.920;12.880;2024-03-06T09:09:55;19.00;;;12.07;;
78205;SDS011;67480;48.920;12.880;2024-03-06T09:12:20;18.52;;;13.13;;
78205;SDS011;67480;48.920;12.880;2024-03-06T09:14:45;18.20;;;11.80;;
78205;SDS011;67480;48.920;12.880;2024-03-06T09:17:11;17.25;;;11.82;;
78205;SDS011;67480;48.920;12.880;2024-03-06T09:19:40;19.15;;;12.18;;
78205;SDS011;67480;48.920;12.880;2024-03-06T09:22:05;18.67;;;11.85;;
78205;SDS011;67480;48.920;12.880;2024-03-06T09:24:31;19.45;;;12.15;;
78205;SDS011;67480;48.920;12.880;2024-03-06T09:26:56;18.42;;;11.65;;
78205;SDS011;67480;48.920;12.880;2024-03-06T09:29:22;17.85;;;11.82;;
78205;SDS011;67480;48.920;12.880;2024-03-06T09:31:48;17.35;;;11.02;;
78205;SDS011;67480;48.920;12.880;2024-03-06T09:34:13;18.00;;;11.63;;
78205;SDS011;67480;48.920;12.880;2024-03-06T09:36:40;20.17;;;13.32;;
78205;SDS011;67480;48.920;12.880;2024-03-06T09:39:10;17.02;;;11.80;;
78205;SDS011;67480;48.920;12.880;2024-03-06T09:41:45;19.00;;;13.18;;
78205;SDS011;67480;48.920;12.880;2024-03-06T09:44:11;18.92;;;12.48;;
78205;SDS011;67480;48.920;12.880;2024-03-06T09:46:39;18.80;;;12.25;;
78205;SDS011;67480;48.920;12.880;2024-03-06T09:49:07;16.90;;;12.05;;
78205;SDS011;67480;48.920;12.880;2024-03-06T09:51:34;20.48;;;12.40;;
78205;SDS011;67480;48.920;12.880;2024-03-06T09:54:00;20.75;;;12.82;;
78205;SDS011;67480;48.920;12.880;2024-03-06T09:56:26;23.10;;;13.73;;
78205;SDS011;67480;48.920;12.880;2024-03-06T09:58:51;18.73;;;12.18;;
78205;SDS011;67480;48.920;12.880;2024-03-06T10:01:18;16.75;;;12.00;;
78205;SDS011;67480;48.920;12.880;2024-03-06T10:03:44;16.85;;;11.82;;
78205;SDS011;67480;48.920;12.880;2024-03-06T10:06:11;19.95;;;12.30;;
78205;SDS011;67480;48.920;12.880;2024-03-06T10:08:36;19.85;;;12.40;;
78205;SDS011;67480;48.920;12.880;2024-03-06T10:11:03;19.65;;;13.80;;
78205;SDS011;67480;48.920;12.880;2024-03-06T10:13:28;21.10;;;13.10;;
78205;SDS011;67480;48.920;12.880;2024-03-06T10:15:57;18.80;;;12.27;;
78205;SDS011;67480;48.920;12.880;2024-03-06T10:18:26;19.20;;;12.50;;
78205;SDS011;67480;48.920;12.880;2024-03-06T10:20:52;19.60;;;13.38;;
78205;SDS011;67480;48.920;12.880;2024-03-06T10:23:18;19.77;;;13.48;;
78205;SDS011;67480;48.920;12.880;2024-03-06T10:25:44;19.50;;;12.55;;
78205;SDS011;67480;48.920;12.880;2024-03-06T10:28:10;21.27;;;14.10;;
78205;SDS011;67480;48.920;12.880;2024-03-06T10:30:37;21.42;;;14.35;;
78205;SDS011;67480;48.920;12.880;2024-03-06T10:33:07;21.35;;;14.13;;
78205;SDS011;67480;48.920;12.880;2024-03-06T10:35:34;20.67;;;14.23;;
78205;SDS011;67480;48.920;12.880;2024-03-06T10:38:02;22.67;;;14.90;;
78205;SDS011;67480;48.920;12.880;2024-03-06T10:40:33;18.45;;;13.30;;
78205;SDS011;67480;48.920;12.880;2024-03-06T10:43:00;18.65;;;12.90;;
78205;SDS011;67480;48.920;12.880;2024-03-06T10:45:33;18.52;;;12.93;;
78205;SDS011;67480;48.920;12.880;2024-03-06T10:48:14;20.92;;;14.10;;
78205;SDS011;67480;48.920;12.880;2024-03-06T10:50:44;22.23;;;13.07;;
78205;SDS011;67480;48.920;12.880;2024-03-06T10:53:12;19.02;;;13.52;;
78205;SDS011;67480;48.920;12.880;2024-03-06T10:55:39;21.80;;;13.65;;
78205;SDS011;67480;48.920;12.880;2024-03-06T10:58:06;20.40;;;13.30;;
78205;SDS011;67480;48.920;12.880;2024-03-06T11:00:40;19.77;;;13.73;;
78205;SDS011;67480;48.920;12.880;2024-03-06T11:03:09;19.80;;;13.32;;
78205;SDS011;67480;48.920;12.880;2024-03-06T11:05:38;19.83;;;13.00;;
78205;SDS011;67480;48.920;12.880;2024-03-06T11:08:14;22.10;;;13.52;;
78205;SDS011;67480;48.920;12.880;2024-03-06T11:10:42;18.02;;;12.50;;
78205;SDS011;67480;48.920;12.880;2024-03-06T11:15:49;18.27;;;12.45;;
78205;SDS011;67480;48.920;12.880;2024-03-06T11:23:29;20.38;;;13.40;;
78205;SDS011;67480;48.920;12.880;2024-03-06T11:25:55;22.50;;;14.30;;
78205;SDS011;67480;48.920;12.880;2024-03-06T11:28:25;24.10;;;14.20;;
78205;SDS011;67480;48.920;12.880;2024-03-06T11:30:56;18.40;;;12.50;;
78205;SDS011;67480;48.920;12.880;2024-03-06T11:39:01;19.70;;;12.90;;
78205;SDS011;67480;48.920;12.880;2024-03-06T11:41:33;20.85;;;14.15;;
78205;SDS011;67480;48.920;12.880;2024-03-06T11:44:15;21.23;;;13.25;;
78205;SDS011;67480;48.920;12.880;2024-03-06T11:49:15;23.42;;;14.23;;
78205;SDS011;67480;48.920;12.880;2024-03-06T11:51:44;19.52;;;13.40;;
78205;SDS011;67480;48.920;12.880;2024-03-06T11:54:10;20.25;;;13.27;;
78205;SDS011;67480;48.920;12.880;2024-03-06T11:56:38;20.00;;;13.88;;
78205;SDS011;67480;48.920;12.880;2024-03-06T11:59:05;24.25;;;14.68;;
78205;SDS011;67480;48.920;12.880;2024-03-06T12:01:32;20.48;;;13.40;;
78205;SDS011;67480;48.920;12.880;2024-03-06T12:03:58;20.67;;;13.43;;
78205;SDS011;67480;48.920;12.880;2024-03-06T12:06:24;19.73;;;13.43;;
78205;SDS011;67480;48.920;12.880;2024-03-06T12:08:53;22.13;;;13.77;;
78205;SDS011;67480;48.920;12.880;2024-03-06T12:11:18;20.02;;;13.70;;
78205;SDS011;67480;48.920;12.880;2024-03-06T12:13:45;19.83;;;13.18;;
78205;SDS011;67480;48.920;12.880;2024-03-06T12:16:13;19.95;;;13.00;;
78205;SDS011;67480;48.920;12.880;2024-03-06T12:18:39;18.95;;;12.68;;
78205;SDS011;67480;48.920;12.880;2024-03-06T12:21:04;22.65;;;13.20;;
78205;SDS011;67480;48.920;12.880;2024-03-06T12:23:30;17.50;;;13.40;;
78205;SDS011;67480;48.920;12.880;2024-03-06T12:26:05;19.00;;;13.23;;
78205;SDS011;67480;48.920;12.880;2024-03-06T12:28:35;18.75;;;12.70;;
78205;SDS011;67480;48.920;12.880;2024-03-06T12:31:02;17.98;;;12.82;;
78205;SDS011;67480;48.920;12.880;2024-03-06T12:33:31;19.77;;;13.35;;
78205;SDS011;67480;48.920;12.880;2024-03-06T12:36:02;18.02;;;12.38;;
78205;SDS011;67480;48.920;12.880;2024-03-06T12:38:29;18.27;;;12.38;;
78205;SDS011;67480;48.920;12.880;2024-03-06T12:40:55;18.63;;;12.15;;
78205;SDS011;67480;48.920;12.880;2024-03-06T12:43:20;18.85;;;12.48;;
78205;SDS011;67480;48.920;12.880;2024-03-06T12:45:46;21.00;;;13.57;;
78205;SDS011;67480;48.920;12.880;2024-03-06T12:48:11;20.27;;;12.88;;
78205;SDS011;67480;48.920;12.880;2024-03-06T12:50:37;20.63;;;13.32;;
78205;SDS011;67480;48.920;12.880;2024-03-06T12:53:03;18.27;;;12.18;;
78205;SDS011;67480;48.920;12.880;2024-03-06T12:55:29;16.85;;;12.07;;
78205;SDS011;67480;48.920;12.880;2024-03-06T12:57:56;18.52;;;12.35;;
78205;SDS011;67480;48.920;12.880;2024-03-06T13:00:22;19.63;;;13.20;;
78205;SDS011;67480;48.920;12.880;2024-03-06T13:02:47;19.60;;;13.43;;
78205;SDS011;67480;48.920;12.880;2024-03-06T13:05:15;21.13;;;13.95;;
78205;SDS011;67480;48.920;12.880;2024-03-06T13:07:42;19.77;;;12.38;;
78205;SDS011;67480;48.920;12.880;2024-03-06T13:10:09;22.70;;;13.50;;
78205;SDS011;67480;48.920;12.880;2024-03-06T13:12:36;17.33;;;11.68;;
78205;SDS011;67480;48.920;12.880;2024-03-06T13:15:01;22.50;;;13.45;;
78205;SDS011;67480;48.920;12.880;2024-03-06T13:17:28;18.52;;;12.43;;
78205;SDS011;67480;48.920;12.880;2024-03-06T13:19:54;19.38;;;12.40;;
78205;SDS011;67480;48.920;12.880;2024-03-06T13:22:21;18.17;;;12.25;;
78205;SDS011;67480;48.920;12.880;2024-03-06T13:24:47;18.58;;;11.68;;
78205;SDS011;67480;48.920;12.880;2024-03-06T13:27:13;17.42;;;11.85;;
78205;SDS011;67480;48.920;12.880;2024-03-06T13:29:39;17.02;;;12.57;;
78205;SDS011;67480;48.920;12.880;2024-03-06T13:32:05;17.80;;;11.35;;
78205;SDS011;67480;48.920;12.880;2024-03-06T13:34:33;15.93;;;10.73;;
78205;SDS011;67480;48.920;12.880;2024-03-06T13:36:59;15.27;;;10.45;;
78205;SDS011;67480;48.920;12.880;2024-03-06T13:39:24;14.48;;;10.25;;
78205;SDS011;67480;48.920;12.880;2024-03-06T13:41:50;16.55;;;10.27;;
78205;SDS011;67480;48.920;12.880;2024-03-06T13:44:17;15.23;;;10.52;;
78205;SDS011;67480;48.920;12.880;2024-03-06T13:46:43;19.35;;;11.98;;
78205;SDS011;67480;48.920;12.880;2024-03-06T13:49:12;18.05;;;11.45;;
78205;SDS011;67480;48.920;12.880;2024-03-06T13:51:59;16.63;;;10.60;;
78205;SDS011;67480;48.920;12.880;2024-03-06T13:54:24;14.70;;;10.45;;
78205;SDS011;67480;48.920;12.880;2024-03-06T13:56:50;14.40;;;10.35;;
78205;SDS011;67480;48.920;12.880;2024-03-06T13:59:15;17.05;;;11.15;;
78205;SDS011;67480;48.920;12.880;2024-03-06T14:01:41;18.25;;;11.27;;
78205;SDS011;67480;48.920;12.880;2024-03-06T14:04:06;17.48;;;11.93;;
78205;SDS011;67480;48.920;12.880;2024-03-06T14:06:31;15.88;;;11.55;;
78205;SDS011;67480;48.920;12.880;2024-03-06T14:08:57;17.65;;;11.57;;
78205;SDS011;67480;48.920;12.880;2024-03-06T14:11:22;17.25;;;11.43;;
78205;SDS011;67480;48.920;12.880;2024-03-06T14:13:48;17.45;;;11.45;;
78205;SDS011;67480;48.920;12.880;2024-03-06T14:16:13;16.65;;;11.27;;
78205;SDS011;67480;48.920;12.880;2024-03-06T14:18:38;16.98;;;11.30;;
78205;SDS011;67480;48.920;12.880;2024-03-06T14:21:04;17.35;;;11.68;;
78205;SDS011;67480;48.920;12.880;2024-03-06T14:23:29;17.83;;;10.32;;
78205;SDS011;67480;48.920;12.880;2024-03-06T14:25:57;16.60;;;10.50;;